createdAt,value
2023-05-14T00:00:16.848Z,10.13
2023-05-14T00:05:09.978Z,11.17
2023-05-14T00:10:02.161Z,11.77
2023-05-14T00:14:54.073Z,10.20
2023-05-14T00:19:45.990Z,9.73
2023-05-14T00:24:37.669Z,9.27
2023-05-14T00:29:29.684Z,11.00
2023-05-14T00:34:21.435Z,10.63
2023-05-14T00:39:14.340Z,9.87
2023-05-14T00:44:06.095Z,9.20
2023-05-14T00:48:59.356Z,10.07
2023-05-14T00:53:52.352Z,9.17
2023-05-14T00:58:44.126Z,8.90
2023-05-14T01:03:36.537Z,11.27
2023-05-14T01:08:39.039Z,9.87
2023-05-14T01:14:01.095Z,8.83
2023-05-14T01:18:54.439Z,7.97
2023-05-14T01:23:46.226Z,7.40
2023-05-14T01:28:38.623Z,8.20
2023-05-14T01:33:33.920Z,8.53
2023-05-14T01:38:30.217Z,8.50
2023-05-14T01:43:23.175Z,7.13
2023-05-14T01:48:15.341Z,8.43
2023-05-14T01:53:07.149Z,8.10
2023-05-14T01:57:59.000Z,8.97
2023-05-14T02:02:50.748Z,11.73
2023-05-14T02:07:42.470Z,7.70
2023-05-14T02:12:34.166Z,7.87
2023-05-14T02:17:26.525Z,8.33
2023-05-14T02:22:18.358Z,8.50
2023-05-14T02:27:12.584Z,8.57
2023-05-14T02:32:04.845Z,9.63
2023-05-14T02:36:56.618Z,9.50
2023-05-14T02:41:48.303Z,10.17
2023-05-14T02:46:40.098Z,7.57
2023-05-14T02:51:31.844Z,8.00
2023-05-14T02:56:23.531Z,9.07
2023-05-14T03:01:15.298Z,8.60
2023-05-14T03:06:07.596Z,7.60
2023-05-14T03:10:59.352Z,7.73
2023-05-14T03:15:54.581Z,7.93
2023-05-14T03:20:46.373Z,9.00
2023-05-14T03:25:38.073Z,9.47
2023-05-14T03:30:29.926Z,10.60
2023-05-14T03:35:21.733Z,8.83
2023-05-14T03:40:13.541Z,9.03
2023-05-14T03:45:06.289Z,9.13
2023-05-14T03:49:58.718Z,9.20
2023-05-14T03:54:50.480Z,8.83
2023-05-14T03:59:42.155Z,9.20
2023-05-14T04:04:33.984Z,8.13
2023-05-14T04:09:25.742Z,8.90
2023-05-14T04:14:17.448Z,8.93
2023-05-14T04:19:09.159Z,9.63
2023-05-14T04:24:00.917Z,11.73
2023-05-14T04:28:52.787Z,10.37
2023-05-14T04:33:44.488Z,11.10
2023-05-14T04:38:36.192Z,9.27
2023-05-14T04:43:27.877Z,10.30
2023-05-14T04:48:19.583Z,11.97
2023-05-14T04:53:11.534Z,11.03
2023-05-14T04:58:03.667Z,11.23
2023-05-14T05:02:55.642Z,12.03
2023-05-14T05:07:47.693Z,11.23
2023-05-14T05:12:39.456Z,10.57
2023-05-14T05:17:31.485Z,10.67
2023-05-14T05:22:24.226Z,10.67
2023-05-14T05:27:15.956Z,11.87
2023-05-14T05:32:08.103Z,11.43
2023-05-14T05:36:59.774Z,10.90
2023-05-14T05:41:51.517Z,11.60
2023-05-14T05:46:43.278Z,12.83
2023-05-14T05:51:34.987Z,11.87
2023-05-14T05:56:26.745Z,11.30
2023-05-14T06:01:18.520Z,12.73
2023-05-14T06:06:10.185Z,11.73
2023-05-14T06:11:01.881Z,12.67
2023-05-14T06:15:53.593Z,12.80
2023-05-14T06:20:45.272Z,11.30
2023-05-14T06:25:36.944Z,13.90
2023-05-14T06:30:28.678Z,13.27
2023-05-14T06:35:20.480Z,13.40
2023-05-14T06:40:15.690Z,12.83
2023-05-14T06:45:07.991Z,10.83
2023-05-14T06:50:01.764Z,12.50
2023-05-14T06:54:53.443Z,11.57
2023-05-14T06:59:45.138Z,13.83
2023-05-14T07:04:36.842Z,12.13
2023-05-14T07:09:28.695Z,10.97
2023-05-14T07:14:20.529Z,12.27
2023-05-14T07:19:12.618Z,10.83
2023-05-14T07:24:05.264Z,12.17
2023-05-14T07:28:57.061Z,12.13
2023-05-14T07:33:48.799Z,12.73
2023-05-14T07:38:40.577Z,11.87
2023-05-14T07:43:32.266Z,11.37
2023-05-14T07:48:23.987Z,10.77
2023-05-14T07:53:15.739Z,9.80
2023-05-14T07:58:07.657Z,8.98
2023-05-14T08:02:59.476Z,9.23
2023-05-14T08:07:51.382Z,10.10
2023-05-14T08:12:43.057Z,10.50
2023-05-14T08:17:34.871Z,10.73
2023-05-14T08:22:26.616Z,10.35
2023-05-14T08:27:18.274Z,11.65
2023-05-14T08:32:22.114Z,11.70
2023-05-14T08:37:14.820Z,12.55
2023-05-14T08:42:07.990Z,11.27
2023-05-14T08:47:00.775Z,11.55
2023-05-14T08:51:53.002Z,11.40
2023-05-14T08:56:50.510Z,11.80
2023-05-14T09:01:48.460Z,10.23
2023-05-14T09:06:43.328Z,10.25
2023-05-14T09:11:41.048Z,10.50
2023-05-14T09:16:32.997Z,11.40
2023-05-14T09:21:24.852Z,11.23
2023-05-14T09:26:18.549Z,9.98
2023-05-14T09:31:10.302Z,10.93
2023-05-14T09:36:02.582Z,10.68
2023-05-14T09:40:54.242Z,10.85
2023-05-14T09:45:45.991Z,12.02
2023-05-14T09:50:46.484Z,9.07
2023-05-14T09:55:39.105Z,11.20
2023-05-14T10:00:35.498Z,11.02
2023-05-14T10:05:28.765Z,10.35
2023-05-14T10:10:26.877Z,8.68
2023-05-14T10:15:30.020Z,8.38
2023-05-14T10:20:24.983Z,8.50
2023-05-14T10:25:17.403Z,7.43
2023-05-14T10:30:12.883Z,7.22
2023-05-14T10:35:22.731Z,7.47
2023-05-14T10:40:14.768Z,9.77
2023-05-14T10:45:15.192Z,8.38
2023-05-14T10:50:11.215Z,8.48
2023-05-14T10:55:09.057Z,10.98
2023-05-14T11:00:02.477Z,9.88
2023-05-14T11:05:00.549Z,7.78
2023-05-14T11:09:53.675Z,6.40
2023-05-14T11:14:46.951Z,6.18
2023-05-14T11:19:38.613Z,7.68
2023-05-14T11:24:30.459Z,6.88
2023-05-14T11:29:22.216Z,6.75
2023-05-14T11:34:14.183Z,5.55
2023-05-14T11:39:05.879Z,5.90
2023-05-14T11:43:58.661Z,5.18
2023-05-14T11:48:50.910Z,5.03
2023-05-14T11:53:42.591Z,5.10
2023-05-14T11:58:34.296Z,11.75
2023-05-14T12:03:29.228Z,5.28
2023-05-14T12:08:31.189Z,4.75
2023-05-14T12:13:27.542Z,4.40
2023-05-14T12:18:24.547Z,5.40
2023-05-14T12:23:17.196Z,4.63
2023-05-14T12:28:19.765Z,4.00
2023-05-14T12:33:11.578Z,4.82
2023-05-14T12:38:04.134Z,4.65
2023-05-14T12:42:56.790Z,4.18
2023-05-14T12:47:48.785Z,4.25
2023-05-14T12:52:40.752Z,4.25
2023-05-14T12:57:32.468Z,4.78
2023-05-14T13:02:24.239Z,4.65
2023-05-14T13:07:15.924Z,4.45
2023-05-14T13:12:08.088Z,4.20
2023-05-14T13:16:59.845Z,3.63
2023-05-14T13:21:51.652Z,4.38
2023-05-14T13:26:44.823Z,5.30
2023-05-14T13:31:36.877Z,4.88
2023-05-14T13:36:28.754Z,4.40
2023-05-14T13:41:21.567Z,4.72
2023-05-14T13:46:13.293Z,4.25
2023-05-14T13:51:05.007Z,5.28
2023-05-14T13:55:58.252Z,7.50
2023-05-14T14:00:50.306Z,5.55
2023-05-14T14:05:42.075Z,4.03
2023-05-14T14:10:33.825Z,4.07
2023-05-14T14:15:25.741Z,3.45
2023-05-14T14:20:17.725Z,4.97
2023-05-14T14:25:10.884Z,5.85
2023-05-14T14:30:02.811Z,5.85
2023-05-14T14:34:54.646Z,4.35
2023-05-14T14:39:46.346Z,2.92
2023-05-14T14:44:38.023Z,3.40
2023-05-14T14:49:30.670Z,3.40
2023-05-14T14:54:22.332Z,4.10
2023-05-14T14:59:14.002Z,4.10
2023-05-14T15:04:05.871Z,5.53
2023-05-14T15:08:57.551Z,3.45
2023-05-14T15:13:49.236Z,4.55
2023-05-14T15:18:40.946Z,4.63
2023-05-14T15:23:32.664Z,3.55
2023-05-14T15:28:24.335Z,4.93
2023-05-14T15:33:19.354Z,3.92
2023-05-14T15:38:11.443Z,4.40
2023-05-14T15:43:03.425Z,5.10
2023-05-14T15:47:55.235Z,4.13
2023-05-14T15:52:47.936Z,3.88
2023-05-14T15:57:39.666Z,4.63
2023-05-14T16:02:33.143Z,4.57
2023-05-14T16:07:25.076Z,4.20
2023-05-14T16:12:16.786Z,4.80
2023-05-14T16:17:08.983Z,3.33
2023-05-14T16:22:00.663Z,4.95
2023-05-14T16:26:52.366Z,2.63
2023-05-14T16:31:44.173Z,2.60
2023-05-14T16:36:35.945Z,2.22
2023-05-14T16:41:28.344Z,4.40
2023-05-14T16:46:20.234Z,1.60
2023-05-14T16:51:12.002Z,2.20
2023-05-14T16:56:04.010Z,1.42
2023-05-14T17:00:55.757Z,2.42
2023-05-14T17:05:47.559Z,3.05
2023-05-14T17:10:39.218Z,2.22
2023-05-14T17:15:30.950Z,1.80
2023-05-14T17:20:22.727Z,1.80
2023-05-14T17:25:14.451Z,2.03
2023-05-14T17:30:07.100Z,3.38
2023-05-14T17:34:58.862Z,2.97
2023-05-14T17:39:50.935Z,3.95
2023-05-14T17:44:42.706Z,3.20
2023-05-14T17:49:35.027Z,3.55
2023-05-14T17:54:26.719Z,2.95
2023-05-14T17:59:18.497Z,2.87
2023-05-14T18:04:10.357Z,2.83
2023-05-14T18:09:02.144Z,2.67
2023-05-14T18:13:53.804Z,5.37
2023-05-14T18:18:45.548Z,2.90
2023-05-14T18:23:37.217Z,3.80
2023-05-14T18:28:28.903Z,2.93
2023-05-14T18:33:20.658Z,3.23
2023-05-14T18:38:13.550Z,2.50
2023-05-14T18:43:05.364Z,2.67
2023-05-14T18:47:57.237Z,2.87
2023-05-14T18:52:49.007Z,2.97
2023-05-14T18:57:40.698Z,2.83
2023-05-14T19:02:32.453Z,4.30
2023-05-14T19:07:24.313Z,4.13
2023-05-14T19:12:16.405Z,3.30
2023-05-14T19:17:08.289Z,4.63
2023-05-14T19:22:00.045Z,4.10
2023-05-14T19:26:51.786Z,5.73
2023-05-14T19:31:43.502Z,5.43
2023-05-14T19:36:35.429Z,4.77
2023-05-14T19:41:27.627Z,5.37
2023-05-14T19:46:19.451Z,5.70
2023-05-14T19:51:11.525Z,4.37
2023-05-14T19:56:03.416Z,3.70
2023-05-14T20:00:57.104Z,5.63
2023-05-14T20:05:49.339Z,4.00
2023-05-14T20:10:41.431Z,4.50
2023-05-14T20:15:33.480Z,3.70
2023-05-14T20:20:25.518Z,4.60
2023-05-14T20:25:17.415Z,2.87
2023-05-14T20:30:09.533Z,2.83
2023-05-14T20:35:02.270Z,3.87
2023-05-14T20:39:54.125Z,3.40
2023-05-14T20:44:48.157Z,2.60
2023-05-14T20:49:39.845Z,2.30
2023-05-14T20:54:31.794Z,2.30
2023-05-14T20:59:23.477Z,2.23
2023-05-14T21:04:15.481Z,2.87
2023-05-14T21:09:07.422Z,5.80
2023-05-14T21:13:59.104Z,5.17
2023-05-14T21:18:50.805Z,2.80
2023-05-14T21:23:42.526Z,3.83
2023-05-14T21:28:34.222Z,3.33
2023-05-14T21:33:25.936Z,2.80
2023-05-14T21:38:17.766Z,3.97
2023-05-14T21:43:10.511Z,3.70
2023-05-14T21:48:02.363Z,4.43
2023-05-14T21:52:54.077Z,3.10
2023-05-14T21:57:45.915Z,2.70
2023-05-14T22:02:37.648Z,3.37
2023-05-14T22:07:29.478Z,3.07
2023-05-14T22:12:21.162Z,4.17
2023-05-14T22:17:12.859Z,2.87
2023-05-14T22:22:04.670Z,3.60
2023-05-14T22:26:56.401Z,3.00
2023-05-14T22:31:48.348Z,3.87
2023-05-14T22:36:40.125Z,5.20
2023-05-14T22:41:31.817Z,4.17
2023-05-14T22:46:23.608Z,3.73
2023-05-14T22:51:16.228Z,2.93
2023-05-14T22:56:07.986Z,6.10
2023-05-14T23:00:59.687Z,3.23
2023-05-14T23:05:51.975Z,4.10
2023-05-14T23:10:43.675Z,3.07
2023-05-14T23:15:35.394Z,3.47
2023-05-14T23:20:27.111Z,2.93
2023-05-14T23:25:18.812Z,2.40
2023-05-14T23:30:11.231Z,3.60
2023-05-14T23:35:03.232Z,2.93
2023-05-14T23:39:55.091Z,3.40
2023-05-14T23:44:46.845Z,3.50
2023-05-14T23:49:40.634Z,4.80
2023-05-14T23:54:32.359Z,5.43
2023-05-14T23:59:24.040Z,6.43
